Weather History for Wrangell, AK

Change the Weather History Date:

Monday, April 22, 2013

  Actual Average Record
Temperature  
Mean Temperature 40 °F -  
Max Temperature 46 °F 51 °F 65 °F (1956)
Min Temperature 33 °F 35 °F 26 °F (1972)
Degree Days  
Heating Degree Days 26    
Moisture  
Dew Point 29 °F    
Average Humidity 66    
Maximum Humidity 81    
Minimum Humidity 46    
Precipitation  
Precipitation 0.00 in - - ()
Sea Level Pressure  
Sea Level Pressure 30.61 in    
Wind  
Wind Speed 6 mph (North)    
Max Wind Speed 12 mph    
Max Gust Speed -    
Visibility 10 miles    
Events      
Averages and records for this station are not official NWS values.
T = Trace of Precipitation, MM = Missing Value Source: NWS Daily Summary

Daily Weather History Graph

Daily Weather History Graph

Search for Another Location

Airport:

Trip Planner

Search our weather history database for the weather conditions in past years. The results will help you decide how hot, cold, wet, or windy it might be!

Date:

Astronomy

Apr. 22, 2013 Rise Set
Actual Time 5:24 AM AKDT 8:13 PM AKDT
Civil Twilight 4:41 AM AKDT 8:56 PM AKDT
Nautical Twilight 3:45 AM AKDT 9:53 PM AKDT
Astronomical Twilight 2:29 AM AKDT 11:10 PM AKDT
Moon 4:38 PM AKDT (4/22) 3:59 AM AKDT (4/22)
Length of Visible Light 16h 14m
Length of Day
14h 49m
Waxing Gibbous, 89% of the Moon is Illuminated
Apr 22
Waxing Gibbous
Apr 25
Full
May 2
Last Quarter
May 9
New
May 17
First Quarter

Hourly Weather History & Observations

Time (AKDT) Temp. Windchill Dew Point Humidity Pressure Visibility Wind Dir Wind Speed Gust Speed Precip Events Conditions
12:16 AM 37.4 °F 32.1 °F 26.6 °F 65% 30.57 in 10.0 mi SE 6.9 mph - N/A   Clear
12:36 AM 35.6 °F 30.7 °F 26.6 °F 70% 30.58 in 10.0 mi SSE 5.8 mph - N/A   Clear
12:56 AM 35.6 °F 29.2 °F 26.6 °F 70% 30.58 in 10.0 mi SE 8.1 mph - N/A   Clear
1:16 AM 35.6 °F 29.9 °F 26.6 °F 70% 30.59 in 10.0 mi SSE 6.9 mph - N/A   Clear
1:36 AM 35.6 °F 30.7 °F 26.6 °F 70% 30.59 in 10.0 mi SE 5.8 mph - N/A   Clear
1:56 AM 35.6 °F 29.9 °F 26.6 °F 70% 30.59 in 10.0 mi SE 6.9 mph - N/A   Clear
2:16 AM 35.6 °F 30.7 °F 26.6 °F 70% 30.60 in 10.0 mi SSE 5.8 mph - N/A   Clear
2:36 AM 35.6 °F 29.9 °F 26.6 °F 70% 30.59 in 10.0 mi SE 6.9 mph - N/A   Clear
2:56 AM 33.8 °F 28.6 °F 26.6 °F 75% 30.60 in 10.0 mi SSE 5.8 mph - N/A   Clear
3:16 AM 33.8 °F 28.6 °F 26.6 °F 75% 30.59 in 10.0 mi SE 5.8 mph - N/A   Clear
3:36 AM 33.8 °F 27.7 °F 26.6 °F 75% 30.59 in 10.0 mi SE 6.9 mph - N/A   Clear
3:56 AM 33.8 °F 28.6 °F 26.6 °F 75% 30.59 in 10.0 mi SE 5.8 mph - N/A   Clear
4:16 AM 33.8 °F 27.7 °F 26.6 °F 75% 30.58 in 10.0 mi SE 6.9 mph - N/A   Clear
4:36 AM 33.8 °F 27.7 °F 26.6 °F 75% 30.59 in 10.0 mi SE 6.9 mph - N/A   Clear
4:56 AM 33.8 °F 28.6 °F 26.6 °F 75% 30.60 in 10.0 mi SE 5.8 mph - N/A   Clear
5:16 AM 33.8 °F 28.6 °F 26.6 °F 75% 30.60 in 10.0 mi SSE 5.8 mph - N/A   Clear
5:36 AM 33.8 °F 28.6 °F 26.6 °F 75% 30.61 in 10.0 mi SE 5.8 mph - N/A   Clear
5:56 AM 33.8 °F 28.6 °F 28.4 °F 81% 30.61 in 10.0 mi SE 5.8 mph - N/A   Clear
6:16 AM 33.8 °F 27.7 °F 26.6 °F 75% 30.62 in 10.0 mi SE 6.9 mph - N/A   Clear
6:36 AM 33.8 °F 27.7 °F 28.4 °F 81% 30.62 in 10.0 mi ESE 6.9 mph - N/A   Clear
6:56 AM 35.6 °F 29.9 °F 28.4 °F 75% 30.61 in 10.0 mi SE 6.9 mph - N/A   Clear
7:16 AM 35.6 °F 29.9 °F 30.2 °F 81% 30.62 in 10.0 mi ESE 6.9 mph - N/A   Clear
7:36 AM 35.6 °F 29.2 °F 30.2 °F 81% 30.62 in 10.0 mi ESE 8.1 mph - N/A   Clear
7:56 AM 37.4 °F 31.4 °F 30.2 °F 75% 30.62 in 10.0 mi ESE 8.1 mph - N/A   Clear
8:16 AM 37.4 °F 34.9 °F 30.2 °F 75% 30.62 in 10.0 mi ESE 3.5 mph - N/A   Clear
8:36 AM 37.4 °F 32.1 °F 28.4 °F 70% 30.62 in 10.0 mi ESE 6.9 mph - N/A   Clear
8:56 AM 39.2 °F 35.0 °F 28.4 °F 65% 30.61 in 10.0 mi SE 5.8 mph - N/A   Clear
9:16 AM 39.2 °F 37.0 °F 28.4 °F 65% 30.62 in 10.0 mi ESE 3.5 mph - N/A   Clear
9:36 AM 39.2 °F 37.0 °F 30.2 °F 70% 30.61 in 10.0 mi East 3.5 mph - N/A   Clear
9:56 AM 39.2 °F - 30.2 °F 70% 30.62 in 10.0 mi Calm Calm - N/A   Clear
10:16 AM 41.0 °F 39.0 °F 28.4 °F 61% 30.62 in 10.0 mi ENE 3.5 mph - N/A   Clear
10:36 AM 39.2 °F - 28.4 °F 65% 30.62 in 10.0 mi Calm Calm - N/A   Clear
10:56 AM 41.0 °F 38.0 °F 28.4 °F 61% 30.63 in 10.0 mi NW 4.6 mph - N/A   Clear
11:16 AM 41.0 °F 38.0 °F 28.4 °F 61% 30.63 in 10.0 mi NW 4.6 mph - N/A   Clear
11:36 AM 42.8 °F 39.3 °F 28.4 °F 57% 30.64 in 10.0 mi NW 5.8 mph - N/A   Clear
11:56 AM 42.8 °F 40.1 °F 28.4 °F 57% 30.64 in 10.0 mi NNW 4.6 mph - N/A   Clear
12:16 PM 42.8 °F 41.1 °F 28.4 °F 57% 30.63 in 10.0 mi NNW 3.5 mph - N/A   Clear
12:36 PM 42.8 °F 41.1 °F 28.4 °F 57% 30.63 in 10.0 mi NNW 3.5 mph - N/A   Clear
12:56 PM 44.6 °F 41.4 °F 28.4 °F 53% 30.63 in 10.0 mi NNW 5.8 mph - N/A   Clear
1:16 PM 44.6 °F 41.4 °F 30.2 °F 57% 30.63 in 10.0 mi NNW 5.8 mph - N/A   Clear
1:36 PM 44.6 °F 42.2 °F 30.2 °F 57% 30.63 in 10.0 mi NNW 4.6 mph - N/A   Clear
1:56 PM 44.6 °F 42.2 °F 26.6 °F 49% 30.63 in 10.0 mi WNW 4.6 mph - N/A   Overcast
2:16 PM 46.4 °F 42.9 °F 26.6 °F 46% 30.63 in 10.0 mi NW 6.9 mph - N/A   Overcast
2:36 PM 46.4 °F 42.9 °F 28.4 °F 50% 30.63 in 10.0 mi WNW 6.9 mph - N/A   Overcast
2:56 PM 46.4 °F 41.5 °F 28.4 °F 50% 30.62 in 10.0 mi NNW 10.4 mph - N/A   Overcast
3:16 PM 46.4 °F 42.9 °F 28.4 °F 50% 30.61 in 10.0 mi NNW 6.9 mph - N/A   Overcast
3:36 PM 46.4 °F 42.9 °F 32.0 °F 57% 30.61 in 10.0 mi NNW 6.9 mph - N/A   Overcast
3:56 PM 46.4 °F 42.4 °F 30.2 °F 53% 30.61 in 10.0 mi NNW 8.1 mph - N/A   Overcast
4:16 PM 46.4 °F 42.9 °F 33.8 °F 62% 30.61 in 10.0 mi NNW 6.9 mph - N/A   Overcast
4:36 PM 44.6 °F 38.8 °F 28.4 °F 53% 30.61 in 10.0 mi NNW 11.5 mph - N/A   Overcast
4:56 PM 44.6 °F 39.2 °F 30.2 °F 57% 30.61 in 10.0 mi NNW 10.4 mph - N/A   Overcast
5:16 PM 44.6 °F 40.2 °F 30.2 °F 57% 30.62 in 10.0 mi NNW 8.1 mph - N/A   Overcast
5:36 PM 44.6 °F 40.7 °F 32.0 °F 61% 30.62 in 10.0 mi NNW 6.9 mph - N/A   Overcast
5:56 PM 44.6 °F 39.7 °F 33.8 °F 66% 30.61 in 10.0 mi NNW 9.2 mph - N/A   Overcast
6:16 PM 44.6 °F 39.2 °F 33.8 °F 66% 30.61 in 10.0 mi NW 10.4 mph - N/A   Overcast
6:36 PM 44.6 °F 39.2 °F 33.8 °F 66% 30.61 in 10.0 mi NNW 10.4 mph - N/A   Overcast
6:56 PM 42.8 °F 38.0 °F 33.8 °F 70% 30.61 in 10.0 mi NNW 8.1 mph - N/A   Overcast
7:16 PM 42.8 °F 38.0 °F 32.0 °F 66% 30.61 in 10.0 mi NNW 8.1 mph - N/A   Overcast
7:36 PM 42.8 °F 38.6 °F 33.8 °F 70% 30.61 in 10.0 mi WNW 6.9 mph - N/A   Overcast
7:56 PM 42.8 °F 38.6 °F 32.0 °F 66% 30.61 in 10.0 mi West 6.9 mph - N/A   Overcast
8:16 PM 42.8 °F 37.5 °F 30.2 °F 61% 30.61 in 10.0 mi WNW 9.2 mph - N/A   Overcast
8:36 PM 42.8 °F 38.0 °F 32.0 °F 66% 30.61 in 10.0 mi NW 8.1 mph - N/A   Overcast
8:56 PM 42.8 °F 37.0 °F 32.0 °F 66% 30.61 in 10.0 mi NW 10.4 mph - N/A   Mostly Cloudy
9:16 PM 42.8 °F 38.0 °F 32.0 °F 66% 30.62 in 10.0 mi WNW 8.1 mph - N/A   Mostly Cloudy
9:36 PM 42.8 °F 41.1 °F 30.2 °F 61% 30.62 in 10.0 mi NNW 3.5 mph - N/A   Mostly Cloudy
9:56 PM 42.8 °F 40.1 °F 30.2 °F 61% 30.62 in 10.0 mi West 4.6 mph - N/A   Scattered Clouds
10:16 PM 41.0 °F 38.0 °F 30.2 °F 65% 30.61 in 10.0 mi West 4.6 mph - N/A   Scattered Clouds
10:36 PM 41.0 °F - 30.2 °F 65% 30.61 in 10.0 mi Calm Calm - N/A   Scattered Clouds
10:56 PM 39.2 °F 35.0 °F 30.2 °F 70% 30.61 in 10.0 mi WSW 5.8 mph - N/A   Scattered Clouds
11:16 PM 39.2 °F 33.6 °F 30.2 °F 70% 30.62 in 10.0 mi NNE 8.1 mph - N/A   Clear
11:36 PM 41.0 °F 37.1 °F 30.2 °F 65% 30.62 in 10.0 mi NNW 5.8 mph - N/A   Clear
11:56 PM 39.2 °F 34.2 °F 30.2 °F 70% 30.62 in 10.0 mi NNW 6.9 mph - N/A   Clear